Burlington, Washington
Current Conditions -  °F | °C
As of 5:56 AM on Friday 24 Oct 2014 (Local Time) from KNUW Reporting Station
Broken Clouds Broken Clouds  
Wind Chill: 51°   Ceiling: 1900
Heat Index: 51°   Visibility: 10mi
Dew Point: 45°   Wind: 9mph
Humidity: 80%   Direction: 120°ESE
Pressure: 30.02"   Gusts: NA
Location:  48.48°N, 122.33°W
Report Text: KNUW 241256Z 12008KT 10SM BKN019 BKN045 BKN100 11/07 A3002 RMK AO2 SLP171 T01060072 $
Loading
Personal Weather Stations






























Interactive Weather Map
Tropical Storm Tracking
New forecast layout! Learn more

10-Day Weather Forecast

Advertisements
Track Severe Weather on mobile